KMHK/MHK METAR and TAF weather

Enter ICAO airport designator
Station Type Date Time Source
KMHK METAR 2020/11/25 20:52 UTC NOAA

KMHK 252052Z 34007KT 10SM OVC017 04/M01 A2996 RMK AO2 SLP152 T00391011 55001


Station Type Date Time Source
KMHK Decoded METAR 2020/11/25 20:52 UTC NOAA

MANHATTAN REGIONAL AIRPORT, KS, United States (KMHK) 39-08N 96-41W 317M
Nov 25, 2020 - 03:52 PM EST / 2020.11.25 2052 UTC
Wind: from the NNW (340 degrees) at 8 MPH (7 KT):0
Visibility: 10 mile(s):0
Sky conditions: overcast
Temperature: 39.0 F (3.9 C)
Dew Point: 30.0 F (-1.1 C)
Relative Humidity: 69%
Pressure (altimeter): 29.96 in. Hg (1014 hPa)
Pressure tendency: 0.00 inches (0.1 hPa) lower than three hours ago
ob: KMHK 252052Z 34007KT 10SM OVC017 04/M01 A2996 RMK AO2 SLP152 T00391011 55001
cycle: 21

Station Type Date Time Source
KMHK TAF 2020/11/25 18:36 UTC NOAA

TAF KMHK 251735Z 2518/2618 34010KT P6SM OVC012
FM252100 29007KT P6SM SCT014
FM260400 VRB02KT 2SM BR SCT008
FM261500 VRB02KT P6SM SCT250

Example: see airport list